Pagrindinis puslapis
METAR-TAF:

METAR-TAF

Oro uostai :

Gibraltaras, Gibraltaras

platuma: 36-09N, ilguma: 005-21W, Aukštis: 5 m

Dabartinis oras

Ataskaita buvo paskelbta 1 valandą ir 6 minutes, ne 03:50 UTC
Vėjas 10 kt iš Rytų
Temperatūra 20°C
Drėgmė 83%
Slėgis 1016 hPa
Matomumas 10 km arba daugiau
Mažai debesys ne aukštis 1400 ft

METAR: LXGB 290350Z 10010KT 9999 FEW014 20/17 Q1016 RMK BLU

Laikas: 06:56 (04:56 UTC)

Prognozė

Ataskaita buvo paskelbta 15 valandos ir 39 minutes, ne 13:17 UTC
Prognozė galioja nuo 28 metu 15 UTC su 28 metu 23 UTC
Vėjas 18 kt iš Rytų/Pietryčių su gūsio iki 28 kt
Matomumas 10 km arba daugiau
Mažai debesys ne aukštis 1500 ft
Tapsmas
nuo 28 metu 15 UTC su 28 metu 18 UTC
Vėjas 14 kt iš Rytų
Tikimybė 40%
nuo 28 metu 15 UTC su 28 metu 23 UTC
Matomumas: 7000 m
Išsisklaidę debesys ne aukštis 2000 ft
migla

TAF: LXGB 281317Z 2815/2823 11018G28KT 9999 FEW015 520002 BECMG 2815/2818 09014KT 50//// PROB40 2815/2823 7000 HZ SCT020

Orai ataskaitas ir orų prognozės (METAR, TAF).

turimą stotys yra geltonos ir raudonos taškus žemėlapyje.

Perkelti pele per norėdami pamatyti stoties vardą.

Tada spustelėkite, norėdami matyti oro stebėjimo ir prognozės.

Norėdami pakeisti žemėlapį: spustelėkite ant žalios mygtukų su juodo kryžiaus žemyn,; žalią mygtuką su brūkšneliu, jei norite nutolinti; arba žalių rodyklių gretimoms žemėlapius.


METAR-TAF: